sensor_id;sensor_type;location;lat;lon;timestamp;P1;durP1;ratioP1;P2;durP2;ratioP2
21274;SDS011;36472;52.170;20.884;2023-06-26T00:00:20;9.05;;;7.35;;
21274;SDS011;36472;52.170;20.884;2023-06-26T00:03:13;7.60;;;6.60;;
21274;SDS011;36472;52.170;20.884;2023-06-26T00:05:42;10.32;;;7.22;;
21274;SDS011;36472;52.170;20.884;2023-06-26T00:08:11;10.30;;;7.40;;
21274;SDS011;36472;52.170;20.884;2023-06-26T00:10:40;10.07;;;7.35;;
21274;SDS011;36472;52.170;20.884;2023-06-26T00:13:09;9.07;;;6.72;;
21274;SDS011;36472;52.170;20.884;2023-06-26T00:15:39;8.52;;;6.90;;
21274;SDS011;36472;52.170;20.884;2023-06-26T00:18:08;12.57;;;6.68;;
21274;SDS011;36472;52.170;20.884;2023-06-26T00:20:38;9.45;;;6.30;;
21274;SDS011;36472;52.170;20.884;2023-06-26T00:23:07;8.50;;;7.40;;
21274;SDS011;36472;52.170;20.884;2023-06-26T00:25:37;9.43;;;7.03;;
21274;SDS011;36472;52.170;20.884;2023-06-26T00:28:05;10.30;;;6.82;;
21274;SDS011;36472;52.170;20.884;2023-06-26T00:30:37;8.75;;;6.45;;
21274;SDS011;36472;52.170;20.884;2023-06-26T00:33:07;9.60;;;6.88;;
21274;SDS011;36472;52.170;20.884;2023-06-26T00:35:36;9.55;;;6.07;;
21274;SDS011;36472;52.170;20.884;2023-06-26T00:38:06;11.13;;;6.47;;
21274;SDS011;36472;52.170;20.884;2023-06-26T00:40:37;10.57;;;6.10;;
21274;SDS011;36472;52.170;20.884;2023-06-26T00:43:06;8.05;;;6.25;;
21274;SDS011;36472;52.170;20.884;2023-06-26T00:45:35;7.97;;;5.80;;
21274;SDS011;36472;52.170;20.884;2023-06-26T00:48:09;9.43;;;6.72;;
21274;SDS011;36472;52.170;20.884;2023-06-26T00:50:40;8.50;;;6.70;;
21274;SDS011;36472;52.170;20.884;2023-06-26T00:53:11;8.40;;;7.10;;
21274;SDS011;36472;52.170;20.884;2023-06-26T00:55:41;10.27;;;6.35;;
21274;SDS011;36472;52.170;20.884;2023-06-26T00:58:10;9.20;;;6.28;;
21274;SDS011;36472;52.170;20.884;2023-06-26T01:00:39;9.23;;;7.05;;
21274;SDS011;36472;52.170;20.884;2023-06-26T01:03:12;7.80;;;6.78;;
21274;SDS011;36472;52.170;20.884;2023-06-26T01:05:41;8.27;;;6.70;;
21274;SDS011;36472;52.170;20.884;2023-06-26T01:08:13;9.82;;;7.15;;
21274;SDS011;36472;52.170;20.884;2023-06-26T01:10:44;9.60;;;7.50;;
21274;SDS011;36472;52.170;20.884;2023-06-26T01:13:14;8.70;;;6.43;;
21274;SDS011;36472;52.170;20.884;2023-06-26T01:15:45;9.50;;;6.40;;
21274;SDS011;36472;52.170;20.884;2023-06-26T01:18:15;9.65;;;6.97;;
21274;SDS011;36472;52.170;20.884;2023-06-26T01:20:44;10.98;;;6.80;;
21274;SDS011;36472;52.170;20.884;2023-06-26T01:23:17;11.18;;;6.60;;
21274;SDS011;36472;52.170;20.884;2023-06-26T01:25:56;10.02;;;6.75;;
21274;SDS011;36472;52.170;20.884;2023-06-26T01:28:45;10.32;;;6.75;;
21274;SDS011;36472;52.170;20.884;2023-06-26T01:31:15;7.97;;;6.65;;
21274;SDS011;36472;52.170;20.884;2023-06-26T01:33:45;10.90;;;7.30;;
21274;SDS011;36472;52.170;20.884;2023-06-26T01:36:16;10.65;;;7.53;;
21274;SDS011;36472;52.170;20.884;2023-06-26T01:38:49;8.63;;;6.85;;
21274;SDS011;36472;52.170;20.884;2023-06-26T01:41:19;9.00;;;6.88;;
21274;SDS011;36472;52.170;20.884;2023-06-26T01:44:01;9.20;;;6.50;;
21274;SDS011;36472;52.170;20.884;2023-06-26T01:46:53;8.27;;;6.25;;
21274;SDS011;36472;52.170;20.884;2023-06-26T01:49:31;8.45;;;7.07;;
21274;SDS011;36472;52.170;20.884;2023-06-26T01:52:12;13.82;;;8.05;;
21274;SDS011;36472;52.170;20.884;2023-06-26T01:54:53;10.55;;;7.00;;
21274;SDS011;36472;52.170;20.884;2023-06-26T01:57:31;9.20;;;7.05;;
21274;SDS011;36472;52.170;20.884;2023-06-26T02:00:03;9.30;;;7.05;;
21274;SDS011;36472;52.170;20.884;2023-06-26T02:02:40;8.38;;;6.50;;
21274;SDS011;36472;52.170;20.884;2023-06-26T02:05:13;11.40;;;7.57;;
21274;SDS011;36472;52.170;20.884;2023-06-26T02:07:42;9.43;;;7.47;;
21274;SDS011;36472;52.170;20.884;2023-06-26T02:10:11;10.50;;;7.18;;
21274;SDS011;36472;52.170;20.884;2023-06-26T02:12:42;9.40;;;7.45;;
21274;SDS011;36472;52.170;20.884;2023-06-26T02:15:13;10.23;;;7.47;;
21274;SDS011;36472;52.170;20.884;2023-06-26T02:17:42;11.10;;;7.70;;
21274;SDS011;36472;52.170;20.884;2023-06-26T02:20:15;11.32;;;8.15;;
21274;SDS011;36472;52.170;20.884;2023-06-26T02:22:44;10.02;;;7.88;;
21274;SDS011;36472;52.170;20.884;2023-06-26T02:25:13;9.05;;;7.30;;
21274;SDS011;36472;52.170;20.884;2023-06-26T02:27:45;10.15;;;7.70;;
21274;SDS011;36472;52.170;20.884;2023-06-26T02:30:14;11.57;;;7.40;;
21274;SDS011;36472;52.170;20.884;2023-06-26T02:32:43;10.35;;;8.35;;
21274;SDS011;36472;52.170;20.884;2023-06-26T02:35:12;11.20;;;8.20;;
21274;SDS011;36472;52.170;20.884;2023-06-26T02:37:42;10.95;;;7.90;;
21274;SDS011;36472;52.170;20.884;2023-06-26T02:40:12;9.13;;;7.32;;
21274;SDS011;36472;52.170;20.884;2023-06-26T02:42:42;9.00;;;7.15;;
21274;SDS011;36472;52.170;20.884;2023-06-26T02:45:16;11.82;;;7.93;;
21274;SDS011;36472;52.170;20.884;2023-06-26T02:47:47;9.25;;;7.50;;
21274;SDS011;36472;52.170;20.884;2023-06-26T02:50:16;10.13;;;7.95;;
21274;SDS011;36472;52.170;20.884;2023-06-26T02:53:06;9.35;;;8.35;;
21274;SDS011;36472;52.170;20.884;2023-06-26T02:55:35;11.05;;;8.35;;
21274;SDS011;36472;52.170;20.884;2023-06-26T02:58:05;9.25;;;7.97;;
21274;SDS011;36472;52.170;20.884;2023-06-26T03:00:36;11.05;;;8.40;;
21274;SDS011;36472;52.170;20.884;2023-06-26T03:03:13;10.55;;;8.60;;
21274;SDS011;36472;52.170;20.884;2023-06-26T03:05:42;10.85;;;8.70;;
21274;SDS011;36472;52.170;20.884;2023-06-26T03:08:11;12.25;;;8.45;;
21274;SDS011;36472;52.170;20.884;2023-06-26T03:10:40;9.77;;;7.72;;
21274;SDS011;36472;52.170;20.884;2023-06-26T03:13:11;9.23;;;7.45;;
21274;SDS011;36472;52.170;20.884;2023-06-26T03:15:41;10.88;;;8.70;;
21274;SDS011;36472;52.170;20.884;2023-06-26T03:18:10;11.35;;;8.90;;
21274;SDS011;36472;52.170;20.884;2023-06-26T03:20:40;12.75;;;8.35;;
21274;SDS011;36472;52.170;20.884;2023-06-26T03:23:09;10.45;;;8.63;;
21274;SDS011;36472;52.170;20.884;2023-06-26T03:25:38;9.35;;;7.82;;
21274;SDS011;36472;52.170;20.884;2023-06-26T03:28:22;11.15;;;8.75;;
21274;SDS011;36472;52.170;20.884;2023-06-26T03:30:52;10.43;;;8.40;;
21274;SDS011;36472;52.170;20.884;2023-06-26T03:33:21;13.98;;;8.32;;
21274;SDS011;36472;52.170;20.884;2023-06-26T03:35:50;11.68;;;8.50;;
21274;SDS011;36472;52.170;20.884;2023-06-26T03:38:21;13.35;;;8.13;;
21274;SDS011;36472;52.170;20.884;2023-06-26T03:40:55;8.93;;;7.22;;
21274;SDS011;36472;52.170;20.884;2023-06-26T03:43:25;10.15;;;7.82;;
21274;SDS011;36472;52.170;20.884;2023-06-26T03:46:16;10.20;;;8.60;;
21274;SDS011;36472;52.170;20.884;2023-06-26T03:48:47;12.40;;;8.73;;
21274;SDS011;36472;52.170;20.884;2023-06-26T03:51:16;12.82;;;8.80;;
21274;SDS011;36472;52.170;20.884;2023-06-26T03:53:45;11.80;;;9.10;;
21274;SDS011;36472;52.170;20.884;2023-06-26T03:56:14;13.40;;;9.05;;
21274;SDS011;36472;52.170;20.884;2023-06-26T03:58:43;10.82;;;8.02;;
21274;SDS011;36472;52.170;20.884;2023-06-26T04:01:12;9.60;;;8.23;;
21274;SDS011;36472;52.170;20.884;2023-06-26T04:03:44;11.95;;;8.32;;
21274;SDS011;36472;52.170;20.884;2023-06-26T04:06:13;11.77;;;8.30;;
21274;SDS011;36472;52.170;20.884;2023-06-26T04:08:42;11.63;;;9.00;;
21274;SDS011;36472;52.170;20.884;2023-06-26T04:11:11;12.38;;;8.73;;
21274;SDS011;36472;52.170;20.884;2023-06-26T04:13:40;13.52;;;8.48;;
21274;SDS011;36472;52.170;20.884;2023-06-26T04:16:09;12.45;;;9.68;;
21274;SDS011;36472;52.170;20.884;2023-06-26T04:18:39;13.43;;;9.25;;
21274;SDS011;36472;52.170;20.884;2023-06-26T04:21:09;14.85;;;10.23;;
21274;SDS011;36472;52.170;20.884;2023-06-26T04:23:40;11.85;;;9.77;;
21274;SDS011;36472;52.170;20.884;2023-06-26T04:26:09;12.05;;;9.32;;
21274;SDS011;36472;52.170;20.884;2023-06-26T04:28:40;11.90;;;8.88;;
21274;SDS011;36472;52.170;20.884;2023-06-26T04:31:10;13.73;;;9.23;;
21274;SDS011;36472;52.170;20.884;2023-06-26T04:33:39;12.05;;;8.95;;
21274;SDS011;36472;52.170;20.884;2023-06-26T04:36:10;12.13;;;9.48;;
21274;SDS011;36472;52.170;20.884;2023-06-26T04:38:39;13.80;;;9.70;;
21274;SDS011;36472;52.170;20.884;2023-06-26T04:41:08;10.35;;;8.52;;
21274;SDS011;36472;52.170;20.884;2023-06-26T04:43:37;11.35;;;9.52;;
21274;SDS011;36472;52.170;20.884;2023-06-26T04:46:06;10.73;;;8.73;;
21274;SDS011;36472;52.170;20.884;2023-06-26T04:48:35;12.65;;;9.60;;
21274;SDS011;36472;52.170;20.884;2023-06-26T04:51:04;11.02;;;8.43;;
21274;SDS011;36472;52.170;20.884;2023-06-26T04:53:35;12.75;;;9.15;;
21274;SDS011;36472;52.170;20.884;2023-06-26T04:56:04;12.27;;;9.52;;
21274;SDS011;36472;52.170;20.884;2023-06-26T04:58:33;12.10;;;9.07;;
21274;SDS011;36472;52.170;20.884;2023-06-26T05:01:02;14.60;;;9.52;;
21274;SDS011;36472;52.170;20.884;2023-06-26T05:03:34;11.10;;;8.82;;
21274;SDS011;36472;52.170;20.884;2023-06-26T05:06:04;12.88;;;8.90;;
21274;SDS011;36472;52.170;20.884;2023-06-26T05:08:37;12.45;;;8.52;;
21274;SDS011;36472;52.170;20.884;2023-06-26T05:11:06;12.90;;;8.95;;
21274;SDS011;36472;52.170;20.884;2023-06-26T05:13:35;12.95;;;9.02;;
21274;SDS011;36472;52.170;20.884;2023-06-26T05:16:04;12.93;;;9.32;;
21274;SDS011;36472;52.170;20.884;2023-06-26T05:18:35;13.82;;;9.95;;
21274;SDS011;36472;52.170;20.884;2023-06-26T05:21:04;11.65;;;8.77;;
21274;SDS011;36472;52.170;20.884;2023-06-26T05:23:34;10.50;;;8.32;;
21274;SDS011;36472;52.170;20.884;2023-06-26T05:26:05;12.55;;;9.63;;
21274;SDS011;36472;52.170;20.884;2023-06-26T05:28:35;13.25;;;9.35;;
21274;SDS011;36472;52.170;20.884;2023-06-26T05:31:05;11.63;;;9.32;;
21274;SDS011;36472;52.170;20.884;2023-06-26T05:33:35;13.23;;;8.73;;
21274;SDS011;36472;52.170;20.884;2023-06-26T05:36:05;13.20;;;9.10;;
21274;SDS011;36472;52.170;20.884;2023-06-26T05:38:39;15.10;;;8.40;;
21274;SDS011;36472;52.170;20.884;2023-06-26T05:41:08;11.10;;;8.68;;
21274;SDS011;36472;52.170;20.884;2023-06-26T05:43:38;11.35;;;8.23;;
21274;SDS011;36472;52.170;20.884;2023-06-26T05:46:07;9.23;;;7.82;;
21274;SDS011;36472;52.170;20.884;2023-06-26T05:48:36;13.95;;;8.55;;
21274;SDS011;36472;52.170;20.884;2023-06-26T05:51:06;13.23;;;8.23;;
21274;SDS011;36472;52.170;20.884;2023-06-26T05:53:36;9.43;;;7.43;;
21274;SDS011;36472;52.170;20.884;2023-06-26T05:56:08;10.55;;;7.00;;
21274;SDS011;36472;52.170;20.884;2023-06-26T05:58:38;9.30;;;7.55;;
21274;SDS011;36472;52.170;20.884;2023-06-26T06:01:08;14.15;;;8.05;;
21274;SDS011;36472;52.170;20.884;2023-06-26T06:03:38;10.25;;;7.70;;
21274;SDS011;36472;52.170;20.884;2023-06-26T06:06:07;9.88;;;7.35;;
21274;SDS011;36472;52.170;20.884;2023-06-26T06:08:36;7.15;;;6.38;;
21274;SDS011;36472;52.170;20.884;2023-06-26T06:11:07;11.25;;;7.22;;
21274;SDS011;36472;52.170;20.884;2023-06-26T06:13:36;7.60;;;6.72;;
21274;SDS011;36472;52.170;20.884;2023-06-26T06:16:05;9.38;;;7.43;;
21274;SDS011;36472;52.170;20.884;2023-06-26T06:18:34;8.27;;;6.40;;
21274;SDS011;36472;52.170;20.884;2023-06-26T06:21:03;9.77;;;6.88;;
21274;SDS011;36472;52.170;20.884;2023-06-26T06:23:32;10.65;;;6.55;;
21274;SDS011;36472;52.170;20.884;2023-06-26T06:26:02;11.18;;;7.10;;
21274;SDS011;36472;52.170;20.884;2023-06-26T06:28:31;7.20;;;6.13;;
21274;SDS011;36472;52.170;20.884;2023-06-26T06:31:00;8.85;;;6.43;;
21274;SDS011;36472;52.170;20.884;2023-06-26T06:33:30;6.50;;;5.72;;
21274;SDS011;36472;52.170;20.884;2023-06-26T06:35:59;7.90;;;5.90;;
21274;SDS011;36472;52.170;20.884;2023-06-26T06:38:28;8.23;;;6.03;;
21274;SDS011;36472;52.170;20.884;2023-06-26T06:40:56;11.60;;;7.28;;
21274;SDS011;36472;52.170;20.884;2023-06-26T06:43:27;10.60;;;7.25;;
21274;SDS011;36472;52.170;20.884;2023-06-26T06:45:56;9.27;;;6.72;;
21274;SDS011;36472;52.170;20.884;2023-06-26T06:48:25;8.63;;;6.53;;
21274;SDS011;36472;52.170;20.884;2023-06-26T06:50:54;11.98;;;6.85;;
21274;SDS011;36472;52.170;20.884;2023-06-26T06:53:23;10.68;;;6.22;;
21274;SDS011;36472;52.170;20.884;2023-06-26T06:55:52;12.93;;;6.22;;
21274;SDS011;36472;52.170;20.884;2023-06-26T06:58:21;6.20;;;5.00;;
21274;SDS011;36472;52.170;20.884;2023-06-26T07:00:51;8.52;;;5.47;;
21274;SDS011;36472;52.170;20.884;2023-06-26T07:03:20;7.80;;;5.78;;
21274;SDS011;36472;52.170;20.884;2023-06-26T07:05:49;10.20;;;6.20;;
21274;SDS011;36472;52.170;20.884;2023-06-26T07:08:19;8.27;;;5.97;;
21274;SDS011;36472;52.170;20.884;2023-06-26T07:10:47;7.28;;;5.80;;
21274;SDS011;36472;52.170;20.884;2023-06-26T07:13:17;7.45;;;5.78;;
21274;SDS011;36472;52.170;20.884;2023-06-26T07:15:46;7.35;;;5.40;;
21274;SDS011;36472;52.170;20.884;2023-06-26T07:18:17;10.68;;;5.65;;
21274;SDS011;36472;52.170;20.884;2023-06-26T07:20:46;10.40;;;5.55;;
21274;SDS011;36472;52.170;20.884;2023-06-26T07:23:15;6.63;;;4.85;;
21274;SDS011;36472;52.170;20.884;2023-06-26T07:25:44;5.50;;;4.60;;
21274;SDS011;36472;52.170;20.884;2023-06-26T07:28:13;7.03;;;4.90;;
21274;SDS011;36472;52.170;20.884;2023-06-26T07:30:42;7.57;;;5.38;;
21274;SDS011;36472;52.170;20.884;2023-06-26T07:33:11;7.18;;;5.20;;
21274;SDS011;36472;52.170;20.884;2023-06-26T07:35:42;10.43;;;6.55;;
21274;SDS011;36472;52.170;20.884;2023-06-26T07:38:11;9.18;;;5.70;;
21274;SDS011;36472;52.170;20.884;2023-06-26T07:40:40;5.68;;;5.18;;
21274;SDS011;36472;52.170;20.884;2023-06-26T07:43:09;5.97;;;4.68;;
21274;SDS011;36472;52.170;20.884;2023-06-26T07:45:38;8.25;;;5.05;;
21274;SDS011;36472;52.170;20.884;2023-06-26T07:48:07;7.32;;;5.43;;
21274;SDS011;36472;52.170;20.884;2023-06-26T07:50:36;7.70;;;5.30;;
21274;SDS011;36472;52.170;20.884;2023-06-26T07:53:07;6.38;;;5.13;;
21274;SDS011;36472;52.170;20.884;2023-06-26T07:55:36;8.32;;;5.60;;
21274;SDS011;36472;52.170;20.884;2023-06-26T07:58:05;8.20;;;5.60;;
21274;SDS011;36472;52.170;20.884;2023-06-26T08:00:35;7.03;;;5.05;;
21274;SDS011;36472;52.170;20.884;2023-06-26T08:03:04;5.70;;;4.90;;
21274;SDS011;36472;52.170;20.884;2023-06-26T08:05:41;7.63;;;5.10;;
21274;SDS011;36472;52.170;20.884;2023-06-26T08:08:11;5.85;;;5.25;;
21274;SDS011;36472;52.170;20.884;2023-06-26T08:10:40;6.32;;;5.57;;
21274;SDS011;36472;52.170;20.884;2023-06-26T08:13:09;6.97;;;5.50;;
21274;SDS011;36472;52.170;20.884;2023-06-26T08:15:38;6.55;;;5.07;;
21274;SDS011;36472;52.170;20.884;2023-06-26T08:18:09;5.68;;;4.45;;
21274;SDS011;36472;52.170;20.884;2023-06-26T08:20:37;7.88;;;5.47;;
21274;SDS011;36472;52.170;20.884;2023-06-26T08:23:07;5.90;;;4.95;;
21274;SDS011;36472;52.170;20.884;2023-06-26T08:25:37;6.53;;;4.80;;
21274;SDS011;36472;52.170;20.884;2023-06-26T08:28:06;8.18;;;5.13;;
21274;SDS011;36472;52.170;20.884;2023-06-26T08:30:35;7.20;;;4.90;;
21274;SDS011;36472;52.170;20.884;2023-06-26T08:33:04;5.00;;;4.47;;
21274;SDS011;36472;52.170;20.884;2023-06-26T08:35:37;7.80;;;4.97;;
21274;SDS011;36472;52.170;20.884;2023-06-26T08:38:06;6.07;;;4.95;;
21274;SDS011;36472;52.170;20.884;2023-06-26T08:40:38;7.63;;;4.95;;
21274;SDS011;36472;52.170;20.884;2023-06-26T08:43:08;5.13;;;4.35;;
21274;SDS011;36472;52.170;20.884;2023-06-26T08:45:37;5.47;;;4.88;;
21274;SDS011;36472;52.170;20.884;2023-06-26T08:48:07;5.13;;;4.63;;
21274;SDS011;36472;52.170;20.884;2023-06-26T08:50:36;6.03;;;5.30;;
21274;SDS011;36472;52.170;20.884;2023-06-26T08:53:11;6.05;;;4.75;;
21274;SDS011;36472;52.170;20.884;2023-06-26T08:55:52;5.43;;;4.93;;
21274;SDS011;36472;52.170;20.884;2023-06-26T08:58:24;4.60;;;4.10;;
21274;SDS011;36472;52.170;20.884;2023-06-26T09:00:53;6.53;;;3.83;;
21274;SDS011;36472;52.170;20.884;2023-06-26T09:03:23;4.95;;;4.45;;
21274;SDS011;36472;52.170;20.884;2023-06-26T09:05:53;6.03;;;4.05;;
21274;SDS011;36472;52.170;20.884;2023-06-26T09:08:22;5.35;;;4.32;;
21274;SDS011;36472;52.170;20.884;2023-06-26T09:10:52;7.45;;;4.75;;
21274;SDS011;36472;52.170;20.884;2023-06-26T09:13:21;4.78;;;4.28;;
21274;SDS011;36472;52.170;20.884;2023-06-26T09:15:56;5.60;;;4.68;;
21274;SDS011;36472;52.170;20.884;2023-06-26T09:18:26;4.68;;;4.03;;
21274;SDS011;36472;52.170;20.884;2023-06-26T09:20:55;5.80;;;4.05;;
21274;SDS011;36472;52.170;20.884;2023-06-26T09:23:24;4.40;;;3.90;;
21274;SDS011;36472;52.170;20.884;2023-06-26T09:25:55;4.35;;;3.95;;
21274;SDS011;36472;52.170;20.884;2023-06-26T09:28:25;4.90;;;4.20;;
21274;SDS011;36472;52.170;20.884;2023-06-26T09:30:54;4.55;;;3.70;;
21274;SDS011;36472;52.170;20.884;2023-06-26T09:33:23;4.90;;;4.18;;
21274;SDS011;36472;52.170;20.884;2023-06-26T09:35:52;5.18;;;4.13;;
21274;SDS011;36472;52.170;20.884;2023-06-26T09:38:21;4.80;;;4.30;;
21274;SDS011;36472;52.170;20.884;2023-06-26T09:40:50;5.80;;;3.83;;
21274;SDS011;36472;52.170;20.884;2023-06-26T09:43:20;4.75;;;4.05;;
21274;SDS011;36472;52.170;20.884;2023-06-26T09:45:49;5.03;;;4.60;;
21274;SDS011;36472;52.170;20.884;2023-06-26T09:48:20;4.90;;;4.13;;
21274;SDS011;36472;52.170;20.884;2023-06-26T09:50:49;4.88;;;4.47;;
21274;SDS011;36472;52.170;20.884;2023-06-26T09:53:37;4.78;;;4.22;;
21274;SDS011;36472;52.170;20.884;2023-06-26T09:56:06;5.25;;;3.92;;
21274;SDS011;36472;52.170;20.884;2023-06-26T09:58:37;4.95;;;4.22;;
21274;SDS011;36472;52.170;20.884;2023-06-26T10:01:07;6.13;;;4.45;;
21274;SDS011;36472;52.170;20.884;2023-06-26T10:03:37;4.78;;;4.30;;
21274;SDS011;36472;52.170;20.884;2023-06-26T10:06:06;5.75;;;4.20;;
21274;SDS011;36472;52.170;20.884;2023-06-26T10:08:38;6.22;;;4.50;;
21274;SDS011;36472;52.170;20.884;2023-06-26T10:11:09;5.25;;;4.32;;
21274;SDS011;36472;52.170;20.884;2023-06-26T10:13:49;5.47;;;4.75;;
21274;SDS011;36472;52.170;20.884;2023-06-26T10:16:41;6.63;;;4.78;;
21274;SDS011;36472;52.170;20.884;2023-06-26T10:19:14;6.68;;;4.38;;
21274;SDS011;36472;52.170;20.884;2023-06-26T10:21:52;5.22;;;4.72;;
21274;SDS011;36472;52.170;20.884;2023-06-26T10:24:23;5.82;;;4.40;;
21274;SDS011;36472;52.170;20.884;2023-06-26T10:26:55;5.07;;;4.57;;
21274;SDS011;36472;52.170;20.884;2023-06-26T10:29:33;4.53;;;4.05;;
21274;SDS011;36472;52.170;20.884;2023-06-26T10:32:04;4.38;;;3.97;;
21274;SDS011;36472;52.170;20.884;2023-06-26T10:34:36;5.47;;;4.40;;
21274;SDS011;36472;52.170;20.884;2023-06-26T10:37:06;4.88;;;4.45;;
21274;SDS011;36472;52.170;20.884;2023-06-26T10:39:47;4.20;;;3.83;;
21274;SDS011;36472;52.170;20.884;2023-06-26T10:42:18;5.97;;;4.30;;
21274;SDS011;36472;52.170;20.884;2023-06-26T10:45:10;5.18;;;4.68;;
21274;SDS011;36472;52.170;20.884;2023-06-26T10:47:44;4.85;;;4.32;;
21274;SDS011;36472;52.170;20.884;2023-06-26T10:50:16;4.30;;;3.83;;
21274;SDS011;36472;52.170;20.884;2023-06-26T10:53:10;4.40;;;3.80;;
21274;SDS011;36472;52.170;20.884;2023-06-26T10:55:49;4.78;;;4.28;;
21274;SDS011;36472;52.170;20.884;2023-06-26T10:58:27;5.15;;;4.35;;
21274;SDS011;36472;52.170;20.884;2023-06-26T11:01:16;4.70;;;3.55;;
21274;SDS011;36472;52.170;20.884;2023-06-26T11:04:00;5.00;;;3.95;;
21274;SDS011;36472;52.170;20.884;2023-06-26T11:06:35;5.75;;;3.97;;
21274;SDS011;36472;52.170;20.884;2023-06-26T11:09:07;6.05;;;4.00;;
21274;SDS011;36472;52.170;20.884;2023-06-26T11:14:38;4.47;;;3.80;;
21274;SDS011;36472;52.170;20.884;2023-06-26T11:17:09;6.55;;;4.25;;
21274;SDS011;36472;52.170;20.884;2023-06-26T11:19:41;4.50;;;3.92;;
21274;SDS011;36472;52.170;20.884;2023-06-26T11:22:11;6.82;;;4.10;;
21274;SDS011;36472;52.170;20.884;2023-06-26T11:24:43;4.13;;;3.72;;
21274;SDS011;36472;52.170;20.884;2023-06-26T11:27:12;4.70;;;4.22;;
21274;SDS011;36472;52.170;20.884;2023-06-26T11:29:47;3.92;;;3.58;;
21274;SDS011;36472;52.170;20.884;2023-06-26T11:32:18;4.22;;;3.53;;
21274;SDS011;36472;52.170;20.884;2023-06-26T11:34:47;4.22;;;3.70;;
21274;SDS011;36472;52.170;20.884;2023-06-26T11:37:16;3.63;;;3.33;;
21274;SDS011;36472;52.170;20.884;2023-06-26T11:39:45;4.95;;;4.10;;
21274;SDS011;36472;52.170;20.884;2023-06-26T11:42:14;5.43;;;3.92;;
21274;SDS011;36472;52.170;20.884;2023-06-26T11:44:43;6.57;;;4.40;;
21274;SDS011;36472;52.170;20.884;2023-06-26T11:47:13;4.43;;;3.95;;
21274;SDS011;36472;52.170;20.884;2023-06-26T11:49:44;5.85;;;4.10;;
21274;SDS011;36472;52.170;20.884;2023-06-26T11:52:15;3.65;;;3.28;;
21274;SDS011;36472;52.170;20.884;2023-06-26T11:54:44;4.22;;;3.25;;
21274;SDS011;36472;52.170;20.884;2023-06-26T11:57:14;6.68;;;3.80;;
21274;SDS011;36472;52.170;20.884;2023-06-26T11:59:46;6.47;;;3.40;;
21274;SDS011;36472;52.170;20.884;2023-06-26T12:02:18;3.78;;;3.45;;
21274;SDS011;36472;52.170;20.884;2023-06-26T12:04:50;5.20;;;3.95;;
21274;SDS011;36472;52.170;20.884;2023-06-26T12:07:20;3.85;;;3.35;;
21274;SDS011;36472;52.170;20.884;2023-06-26T12:09:50;4.53;;;3.60;;
21274;SDS011;36472;52.170;20.884;2023-06-26T12:12:20;4.00;;;3.60;;
21274;SDS011;36472;52.170;20.884;2023-06-26T12:14:50;4.25;;;3.50;;
21274;SDS011;36472;52.170;20.884;2023-06-26T12:17:22;4.15;;;3.50;;
21274;SDS011;36472;52.170;20.884;2023-06-26T12:19:53;5.53;;;2.90;;
21274;SDS011;36472;52.170;20.884;2023-06-26T12:22:22;4.38;;;3.72;;
21274;SDS011;36472;52.170;20.884;2023-06-26T12:24:51;3.60;;;3.30;;
21274;SDS011;36472;52.170;20.884;2023-06-26T12:27:25;4.65;;;3.70;;
21274;SDS011;36472;52.170;20.884;2023-06-26T12:29:55;4.10;;;3.70;;
21274;SDS011;36472;52.170;20.884;2023-06-26T12:32:25;4.47;;;3.65;;
21274;SDS011;36472;52.170;20.884;2023-06-26T12:34:56;3.50;;;3.20;;
21274;SDS011;36472;52.170;20.884;2023-06-26T12:37:26;4.80;;;3.72;;
21274;SDS011;36472;52.170;20.884;2023-06-26T12:39:55;4.40;;;4.00;;
21274;SDS011;36472;52.170;20.884;2023-06-26T12:42:26;5.05;;;3.75;;
21274;SDS011;36472;52.170;20.884;2023-06-26T12:44:56;4.65;;;3.42;;
21274;SDS011;36472;52.170;20.884;2023-06-26T12:47:26;5.75;;;4.07;;
21274;SDS011;36472;52.170;20.884;2023-06-26T12:50:04;4.15;;;3.70;;
21274;SDS011;36472;52.170;20.884;2023-06-26T12:52:35;4.68;;;4.18;;
21274;SDS011;36472;52.170;20.884;2023-06-26T12:55:04;3.92;;;3.60;;
21274;SDS011;36472;52.170;20.884;2023-06-26T12:57:34;4.15;;;3.30;;
21274;SDS011;36472;52.170;20.884;2023-06-26T13:00:04;5.38;;;3.65;;
21274;SDS011;36472;52.170;20.884;2023-06-26T13:02:37;3.67;;;3.30;;
21274;SDS011;36472;52.170;20.884;2023-06-26T13:05:08;4.43;;;3.72;;
21274;SDS011;36472;52.170;20.884;2023-06-26T13:07:37;4.78;;;3.58;;
21274;SDS011;36472;52.170;20.884;2023-06-26T13:10:06;4.25;;;3.63;;
21274;SDS011;36472;52.170;20.884;2023-06-26T13:12:36;4.18;;;3.75;;
21274;SDS011;36472;52.170;20.884;2023-06-26T13:15:05;5.13;;;3.38;;
21274;SDS011;36472;52.170;20.884;2023-06-26T13:17:36;5.25;;;3.97;;
21274;SDS011;36472;52.170;20.884;2023-06-26T13:20:05;4.90;;;3.60;;
21274;SDS011;36472;52.170;20.884;2023-06-26T13:22:38;5.03;;;3.67;;
21274;SDS011;36472;52.170;20.884;2023-06-26T13:25:07;4.25;;;3.80;;
21274;SDS011;36472;52.170;20.884;2023-06-26T13:27:38;3.90;;;3.55;;
21274;SDS011;36472;52.170;20.884;2023-06-26T13:30:08;5.15;;;3.85;;
21274;SDS011;36472;52.170;20.884;2023-06-26T13:32:38;5.13;;;4.00;;
21274;SDS011;36472;52.170;20.884;2023-06-26T13:35:08;4.25;;;3.78;;
21274;SDS011;36472;52.170;20.884;2023-06-26T13:37:38;4.00;;;3.60;;
21274;SDS011;36472;52.170;20.884;2023-06-26T13:40:07;4.22;;;3.55;;
21274;SDS011;36472;52.170;20.884;2023-06-26T13:42:38;4.93;;;3.50;;
21274;SDS011;36472;52.170;20.884;2023-06-26T13:45:08;3.90;;;3.40;;
21274;SDS011;36472;52.170;20.884;2023-06-26T13:47:53;4.25;;;3.55;;
21274;SDS011;36472;52.170;20.884;2023-06-26T13:50:23;4.28;;;3.83;;
21274;SDS011;36472;52.170;20.884;2023-06-26T13:53:04;4.65;;;3.85;;
21274;SDS011;36472;52.170;20.884;2023-06-26T13:55:34;3.75;;;3.45;;
21274;SDS011;36472;52.170;20.884;2023-06-26T13:58:05;4.97;;;3.92;;
21274;SDS011;36472;52.170;20.884;2023-06-26T14:00:34;4.22;;;3.47;;
21274;SDS011;36472;52.170;20.884;2023-06-26T14:03:05;6.32;;;3.78;;
21274;SDS011;36472;52.170;20.884;2023-06-26T14:05:37;6.03;;;3.67;;
21274;SDS011;36472;52.170;20.884;2023-06-26T14:08:08;4.97;;;3.97;;
21274;SDS011;36472;52.170;20.884;2023-06-26T14:10:37;6.57;;;3.97;;
21274;SDS011;36472;52.170;20.884;2023-06-26T14:13:07;4.03;;;3.60;;
21274;SDS011;36472;52.170;20.884;2023-06-26T14:15:38;5.22;;;3.70;;
21274;SDS011;36472;52.170;20.884;2023-06-26T14:18:07;4.30;;;3.78;;
21274;SDS011;36472;52.170;20.884;2023-06-26T14:20:38;4.93;;;4.03;;
21274;SDS011;36472;52.170;20.884;2023-06-26T14:23:08;6.53;;;4.15;;
21274;SDS011;36472;52.170;20.884;2023-06-26T14:25:37;4.88;;;4.05;;
21274;SDS011;36472;52.170;20.884;2023-06-26T14:28:06;4.03;;;3.63;;
21274;SDS011;36472;52.170;20.884;2023-06-26T14:30:35;7.57;;;4.40;;
21274;SDS011;36472;52.170;20.884;2023-06-26T14:33:04;4.95;;;4.20;;
21274;SDS011;36472;52.170;20.884;2023-06-26T14:35:33;4.95;;;4.03;;
21274;SDS011;36472;52.170;20.884;2023-06-26T14:38:04;7.05;;;4.18;;
21274;SDS011;36472;52.170;20.884;2023-06-26T14:40:33;5.47;;;4.10;;
21274;SDS011;36472;52.170;20.884;2023-06-26T14:43:03;6.38;;;4.15;;
21274;SDS011;36472;52.170;20.884;2023-06-26T14:45:32;4.70;;;4.20;;
21274;SDS011;36472;52.170;20.884;2023-06-26T14:48:01;4.20;;;3.80;;
21274;SDS011;36472;52.170;20.884;2023-06-26T14:50:30;6.13;;;4.38;;
21274;SDS011;36472;52.170;20.884;2023-06-26T14:53:00;7.82;;;4.40;;
21274;SDS011;36472;52.170;20.884;2023-06-26T14:55:30;4.28;;;3.88;;